sensor_id;sensor_type;location;lat;lon;timestamp;P1;durP1;ratioP1;P2;durP2;ratioP2
62102;SDS011;48077;48.104;11.702;2023-10-31T00:00:08;320.85;;;213.38;;
62102;SDS011;48077;48.104;11.702;2023-10-31T00:02:34;319.92;;;215.20;;
62102;SDS011;48077;48.104;11.702;2023-10-31T00:04:57;314.88;;;211.68;;
62102;SDS011;48077;48.104;11.702;2023-10-31T00:07:23;320.42;;;214.57;;
62102;SDS011;48077;48.104;11.702;2023-10-31T00:09:46;321.92;;;215.50;;
62102;SDS011;48077;48.104;11.702;2023-10-31T00:12:09;319.10;;;213.77;;
62102;SDS011;48077;48.104;11.702;2023-10-31T00:14:33;323.83;;;216.30;;
62102;SDS011;48077;48.104;11.702;2023-10-31T00:16:56;320.50;;;215.82;;
62102;SDS011;48077;48.104;11.702;2023-10-31T00:19:20;326.27;;;217.20;;
62102;SDS011;48077;48.104;11.702;2023-10-31T00:21:44;329.20;;;217.32;;
62102;SDS011;48077;48.104;11.702;2023-10-31T00:24:07;323.95;;;216.18;;
62102;SDS011;48077;48.104;11.702;2023-10-31T00:26:30;329.20;;;218.75;;
62102;SDS011;48077;48.104;11.702;2023-10-31T00:28:54;323.35;;;217.52;;
62102;SDS011;48077;48.104;11.702;2023-10-31T00:31:17;326.92;;;216.02;;
62102;SDS011;48077;48.104;11.702;2023-10-31T00:33:41;325.20;;;216.88;;
62102;SDS011;48077;48.104;11.702;2023-10-31T00:36:04;328.17;;;218.10;;
62102;SDS011;48077;48.104;11.702;2023-10-31T00:38:28;324.33;;;216.93;;
62102;SDS011;48077;48.104;11.702;2023-10-31T00:40:51;322.83;;;216.70;;
62102;SDS011;48077;48.104;11.702;2023-10-31T00:43:17;326.77;;;219.07;;
62102;SDS011;48077;48.104;11.702;2023-10-31T00:45:40;322.67;;;217.23;;
62102;SDS011;48077;48.104;11.702;2023-10-31T00:48:04;324.65;;;217.18;;
62102;SDS011;48077;48.104;11.702;2023-10-31T00:50:27;327.80;;;216.77;;
62102;SDS011;48077;48.104;11.702;2023-10-31T00:52:51;322.02;;;216.32;;
62102;SDS011;48077;48.104;11.702;2023-10-31T00:55:15;329.95;;;218.98;;
62102;SDS011;48077;48.104;11.702;2023-10-31T00:57:38;326.60;;;218.05;;
62102;SDS011;48077;48.104;11.702;2023-10-31T01:00:01;326.83;;;217.75;;
62102;SDS011;48077;48.104;11.702;2023-10-31T01:07:39;344.40;;;229.23;;
62102;SDS011;48077;48.104;11.702;2023-10-31T01:10:03;341.75;;;227.82;;
62102;SDS011;48077;48.104;11.702;2023-10-31T01:12:27;339.77;;;225.43;;
62102;SDS011;48077;48.104;11.702;2023-10-31T01:14:50;341.73;;;225.63;;
62102;SDS011;48077;48.104;11.702;2023-10-31T01:17:14;339.90;;;224.60;;
62102;SDS011;48077;48.104;11.702;2023-10-31T01:19:39;341.17;;;224.80;;
62102;SDS011;48077;48.104;11.702;2023-10-31T01:22:03;337.80;;;224.48;;
62102;SDS011;48077;48.104;11.702;2023-10-31T01:24:26;330.67;;;222.40;;
62102;SDS011;48077;48.104;11.702;2023-10-31T01:26:50;334.10;;;222.55;;
62102;SDS011;48077;48.104;11.702;2023-10-31T01:29:13;339.25;;;223.00;;
62102;SDS011;48077;48.104;11.702;2023-10-31T01:31:36;337.13;;;225.15;;
62102;SDS011;48077;48.104;11.702;2023-10-31T01:34:00;339.40;;;223.00;;
62102;SDS011;48077;48.104;11.702;2023-10-31T01:36:24;337.63;;;222.75;;
62102;SDS011;48077;48.104;11.702;2023-10-31T01:38:49;336.88;;;222.70;;
62102;SDS011;48077;48.104;11.702;2023-10-31T01:41:13;339.20;;;225.30;;
62102;SDS011;48077;48.104;11.702;2023-10-31T01:43:36;339.45;;;225.13;;
62102;SDS011;48077;48.104;11.702;2023-10-31T01:46:00;338.27;;;225.27;;
62102;SDS011;48077;48.104;11.702;2023-10-31T01:48:24;339.27;;;225.00;;
62102;SDS011;48077;48.104;11.702;2023-10-31T01:50:48;334.98;;;223.70;;
62102;SDS011;48077;48.104;11.702;2023-10-31T01:53:12;341.15;;;225.05;;
62102;SDS011;48077;48.104;11.702;2023-10-31T01:55:36;332.42;;;222.80;;
62102;SDS011;48077;48.104;11.702;2023-10-31T01:57:59;339.95;;;225.23;;
62102;SDS011;48077;48.104;11.702;2023-10-31T02:00:23;339.20;;;224.20;;
62102;SDS011;48077;48.104;11.702;2023-10-31T02:02:47;339.98;;;225.82;;
62102;SDS011;48077;48.104;11.702;2023-10-31T02:05:11;336.80;;;223.85;;
62102;SDS011;48077;48.104;11.702;2023-10-31T02:07:34;337.40;;;223.82;;
62102;SDS011;48077;48.104;11.702;2023-10-31T02:09:57;339.92;;;224.55;;
62102;SDS011;48077;48.104;11.702;2023-10-31T02:12:30;338.20;;;224.68;;
62102;SDS011;48077;48.104;11.702;2023-10-31T02:14:58;338.75;;;224.65;;
62102;SDS011;48077;48.104;11.702;2023-10-31T02:17:21;337.55;;;224.73;;
62102;SDS011;48077;48.104;11.702;2023-10-31T02:19:44;334.92;;;223.48;;
62102;SDS011;48077;48.104;11.702;2023-10-31T02:22:08;336.60;;;224.68;;
62102;SDS011;48077;48.104;11.702;2023-10-31T02:24:31;336.45;;;224.07;;
62102;SDS011;48077;48.104;11.702;2023-10-31T02:26:54;340.10;;;225.38;;
62102;SDS011;48077;48.104;11.702;2023-10-31T02:29:20;339.27;;;224.63;;
62102;SDS011;48077;48.104;11.702;2023-10-31T02:31:45;336.85;;;223.75;;
62102;SDS011;48077;48.104;11.702;2023-10-31T02:34:09;337.90;;;225.10;;
62102;SDS011;48077;48.104;11.702;2023-10-31T02:36:32;334.50;;;222.85;;
62102;SDS011;48077;48.104;11.702;2023-10-31T02:38:56;334.92;;;223.25;;
62102;SDS011;48077;48.104;11.702;2023-10-31T02:41:20;339.40;;;224.70;;
62102;SDS011;48077;48.104;11.702;2023-10-31T02:43:43;335.90;;;225.05;;
62102;SDS011;48077;48.104;11.702;2023-10-31T02:46:07;341.85;;;224.82;;
62102;SDS011;48077;48.104;11.702;2023-10-31T02:48:30;334.48;;;224.02;;
62102;SDS011;48077;48.104;11.702;2023-10-31T02:51:00;341.77;;;226.43;;
62102;SDS011;48077;48.104;11.702;2023-10-31T02:53:24;338.88;;;225.18;;
62102;SDS011;48077;48.104;11.702;2023-10-31T02:55:47;340.55;;;225.55;;
62102;SDS011;48077;48.104;11.702;2023-10-31T02:58:11;341.85;;;226.88;;
62102;SDS011;48077;48.104;11.702;2023-10-31T03:00:34;336.45;;;224.10;;
62102;SDS011;48077;48.104;11.702;2023-10-31T03:02:57;342.08;;;226.43;;
62102;SDS011;48077;48.104;11.702;2023-10-31T03:05:21;335.77;;;224.68;;
62102;SDS011;48077;48.104;11.702;2023-10-31T03:07:44;345.33;;;227.23;;
62102;SDS011;48077;48.104;11.702;2023-10-31T03:10:08;341.10;;;226.65;;
62102;SDS011;48077;48.104;11.702;2023-10-31T03:12:33;340.40;;;227.25;;
62102;SDS011;48077;48.104;11.702;2023-10-31T03:14:57;339.25;;;226.18;;
62102;SDS011;48077;48.104;11.702;2023-10-31T03:17:20;342.50;;;226.88;;
62102;SDS011;48077;48.104;11.702;2023-10-31T03:19:44;337.73;;;225.70;;
62102;SDS011;48077;48.104;11.702;2023-10-31T03:22:07;343.02;;;226.60;;
62102;SDS011;48077;48.104;11.702;2023-10-31T03:24:30;337.50;;;225.77;;
62102;SDS011;48077;48.104;11.702;2023-10-31T03:26:54;337.85;;;224.98;;
62102;SDS011;48077;48.104;11.702;2023-10-31T03:29:18;341.38;;;226.05;;
62102;SDS011;48077;48.104;11.702;2023-10-31T03:31:42;340.20;;;226.13;;
62102;SDS011;48077;48.104;11.702;2023-10-31T03:34:05;342.67;;;227.23;;
62102;SDS011;48077;48.104;11.702;2023-10-31T03:36:29;340.63;;;225.88;;
62102;SDS011;48077;48.104;11.702;2023-10-31T03:38:53;339.25;;;225.32;;
62102;SDS011;48077;48.104;11.702;2023-10-31T03:41:17;343.75;;;227.05;;
62102;SDS011;48077;48.104;11.702;2023-10-31T03:43:40;338.73;;;226.00;;
62102;SDS011;48077;48.104;11.702;2023-10-31T03:46:03;342.92;;;227.57;;
62102;SDS011;48077;48.104;11.702;2023-10-31T03:48:27;340.83;;;227.18;;
62102;SDS011;48077;48.104;11.702;2023-10-31T03:50:50;340.88;;;226.50;;
62102;SDS011;48077;48.104;11.702;2023-10-31T03:53:14;344.02;;;228.65;;
62102;SDS011;48077;48.104;11.702;2023-10-31T03:55:37;340.35;;;226.75;;
62102;SDS011;48077;48.104;11.702;2023-10-31T03:58:01;339.45;;;226.55;;
62102;SDS011;48077;48.104;11.702;2023-10-31T04:00:24;342.75;;;226.95;;
62102;SDS011;48077;48.104;11.702;2023-10-31T04:02:47;338.50;;;225.65;;
62102;SDS011;48077;48.104;11.702;2023-10-31T04:05:11;334.70;;;224.63;;
62102;SDS011;48077;48.104;11.702;2023-10-31T04:07:34;340.10;;;226.30;;
62102;SDS011;48077;48.104;11.702;2023-10-31T04:09:57;336.02;;;224.98;;
62102;SDS011;48077;48.104;11.702;2023-10-31T04:12:21;335.33;;;224.63;;
62102;SDS011;48077;48.104;11.702;2023-10-31T04:14:44;339.58;;;225.35;;
62102;SDS011;48077;48.104;11.702;2023-10-31T04:17:07;340.85;;;226.70;;
62102;SDS011;48077;48.104;11.702;2023-10-31T04:19:31;335.77;;;226.25;;
62102;SDS011;48077;48.104;11.702;2023-10-31T04:21:55;339.27;;;226.05;;
62102;SDS011;48077;48.104;11.702;2023-10-31T04:24:18;340.33;;;226.05;;
62102;SDS011;48077;48.104;11.702;2023-10-31T04:26:41;338.00;;;226.40;;
62102;SDS011;48077;48.104;11.702;2023-10-31T04:29:05;341.65;;;229.05;;
62102;SDS011;48077;48.104;11.702;2023-10-31T04:31:28;342.95;;;229.07;;
62102;SDS011;48077;48.104;11.702;2023-10-31T04:33:51;341.27;;;226.65;;
62102;SDS011;48077;48.104;11.702;2023-10-31T04:36:15;342.55;;;226.75;;
62102;SDS011;48077;48.104;11.702;2023-10-31T04:38:38;343.17;;;227.35;;
62102;SDS011;48077;48.104;11.702;2023-10-31T04:41:02;340.17;;;226.25;;
62102;SDS011;48077;48.104;11.702;2023-10-31T04:43:27;340.00;;;226.98;;
62102;SDS011;48077;48.104;11.702;2023-10-31T04:45:51;342.83;;;228.57;;
62102;SDS011;48077;48.104;11.702;2023-10-31T04:48:14;340.02;;;228.07;;
62102;SDS011;48077;48.104;11.702;2023-10-31T04:50:38;334.65;;;225.60;;
62102;SDS011;48077;48.104;11.702;2023-10-31T04:53:01;339.60;;;228.07;;
62102;SDS011;48077;48.104;11.702;2023-10-31T04:55:25;344.63;;;228.10;;
62102;SDS011;48077;48.104;11.702;2023-10-31T04:57:48;345.45;;;228.70;;
62102;SDS011;48077;48.104;11.702;2023-10-31T05:00:12;342.25;;;227.93;;
62102;SDS011;48077;48.104;11.702;2023-10-31T05:02:35;342.95;;;228.80;;
62102;SDS011;48077;48.104;11.702;2023-10-31T05:04:59;339.13;;;226.75;;
62102;SDS011;48077;48.104;11.702;2023-10-31T05:07:22;343.60;;;228.60;;
62102;SDS011;48077;48.104;11.702;2023-10-31T05:09:45;338.60;;;227.40;;
62102;SDS011;48077;48.104;11.702;2023-10-31T05:12:09;341.50;;;227.57;;
62102;SDS011;48077;48.104;11.702;2023-10-31T05:14:32;341.33;;;228.25;;
62102;SDS011;48077;48.104;11.702;2023-10-31T05:16:55;337.63;;;226.20;;
62102;SDS011;48077;48.104;11.702;2023-10-31T05:19:19;339.90;;;226.85;;
62102;SDS011;48077;48.104;11.702;2023-10-31T05:21:42;340.85;;;228.35;;
62102;SDS011;48077;48.104;11.702;2023-10-31T05:24:06;340.23;;;227.50;;
62102;SDS011;48077;48.104;11.702;2023-10-31T05:26:30;340.55;;;227.98;;
62102;SDS011;48077;48.104;11.702;2023-10-31T05:28:53;338.92;;;227.43;;
62102;SDS011;48077;48.104;11.702;2023-10-31T05:31:17;342.00;;;228.43;;
62102;SDS011;48077;48.104;11.702;2023-10-31T05:33:40;336.08;;;225.55;;
62102;SDS011;48077;48.104;11.702;2023-10-31T05:36:03;342.98;;;227.80;;
62102;SDS011;48077;48.104;11.702;2023-10-31T05:38:27;342.58;;;228.77;;
62102;SDS011;48077;48.104;11.702;2023-10-31T05:40:51;336.08;;;226.57;;
62102;SDS011;48077;48.104;11.702;2023-10-31T05:43:14;342.38;;;229.23;;
62102;SDS011;48077;48.104;11.702;2023-10-31T05:45:38;339.25;;;226.88;;
62102;SDS011;48077;48.104;11.702;2023-10-31T05:48:01;343.15;;;226.27;;
62102;SDS011;48077;48.104;11.702;2023-10-31T05:50:24;345.90;;;230.20;;
62102;SDS011;48077;48.104;11.702;2023-10-31T05:52:48;339.88;;;228.90;;
62102;SDS011;48077;48.104;11.702;2023-10-31T05:55:11;344.75;;;229.63;;
62102;SDS011;48077;48.104;11.702;2023-10-31T05:57:34;340.95;;;227.68;;
62102;SDS011;48077;48.104;11.702;2023-10-31T05:59:58;342.45;;;227.15;;
62102;SDS011;48077;48.104;11.702;2023-10-31T06:02:21;340.23;;;227.43;;
62102;SDS011;48077;48.104;11.702;2023-10-31T06:04:45;344.88;;;230.05;;
62102;SDS011;48077;48.104;11.702;2023-10-31T06:07:08;343.60;;;226.85;;
62102;SDS011;48077;48.104;11.702;2023-10-31T06:09:33;342.05;;;227.77;;
62102;SDS011;48077;48.104;11.702;2023-10-31T06:11:56;338.17;;;225.38;;
62102;SDS011;48077;48.104;11.702;2023-10-31T06:14:20;345.27;;;230.07;;
62102;SDS011;48077;48.104;11.702;2023-10-31T06:16:43;341.63;;;229.05;;
62102;SDS011;48077;48.104;11.702;2023-10-31T06:19:07;343.75;;;228.40;;
62102;SDS011;48077;48.104;11.702;2023-10-31T06:21:30;340.15;;;228.90;;
62102;SDS011;48077;48.104;11.702;2023-10-31T06:23:54;340.48;;;228.10;;
62102;SDS011;48077;48.104;11.702;2023-10-31T06:26:17;346.75;;;230.48;;
62102;SDS011;48077;48.104;11.702;2023-10-31T06:28:41;342.20;;;229.15;;
62102;SDS011;48077;48.104;11.702;2023-10-31T06:31:04;346.40;;;229.77;;
62102;SDS011;48077;48.104;11.702;2023-10-31T06:33:27;346.65;;;230.27;;
62102;SDS011;48077;48.104;11.702;2023-10-31T06:35:51;340.02;;;225.30;;
62102;SDS011;48077;48.104;11.702;2023-10-31T06:38:16;342.05;;;229.02;;
62102;SDS011;48077;48.104;11.702;2023-10-31T06:40:40;342.77;;;229.43;;
62102;SDS011;48077;48.104;11.702;2023-10-31T06:43:03;346.02;;;228.60;;
62102;SDS011;48077;48.104;11.702;2023-10-31T06:45:27;341.13;;;228.40;;
62102;SDS011;48077;48.104;11.702;2023-10-31T06:47:50;342.42;;;229.50;;
62102;SDS011;48077;48.104;11.702;2023-10-31T06:50:13;341.77;;;228.20;;
62102;SDS011;48077;48.104;11.702;2023-10-31T06:52:37;343.70;;;228.23;;
62102;SDS011;48077;48.104;11.702;2023-10-31T06:55:00;339.92;;;226.40;;
62102;SDS011;48077;48.104;11.702;2023-10-31T06:57:23;343.40;;;228.43;;
62102;SDS011;48077;48.104;11.702;2023-10-31T06:59:47;342.83;;;229.80;;
62102;SDS011;48077;48.104;11.702;2023-10-31T07:02:10;336.88;;;226.20;;
62102;SDS011;48077;48.104;11.702;2023-10-31T07:04:34;337.23;;;226.75;;
62102;SDS011;48077;48.104;11.702;2023-10-31T07:06:57;342.20;;;228.23;;
62102;SDS011;48077;48.104;11.702;2023-10-31T07:09:20;340.75;;;228.45;;
62102;SDS011;48077;48.104;11.702;2023-10-31T07:11:44;338.83;;;227.70;;
62102;SDS011;48077;48.104;11.702;2023-10-31T07:14:07;343.88;;;227.82;;
62102;SDS011;48077;48.104;11.702;2023-10-31T07:16:31;342.05;;;227.48;;
62102;SDS011;48077;48.104;11.702;2023-10-31T07:18:55;343.92;;;230.43;;
62102;SDS011;48077;48.104;11.702;2023-10-31T07:21:18;340.98;;;228.32;;
62102;SDS011;48077;48.104;11.702;2023-10-31T07:23:42;337.15;;;226.18;;
62102;SDS011;48077;48.104;11.702;2023-10-31T07:26:07;345.35;;;228.60;;
62102;SDS011;48077;48.104;11.702;2023-10-31T07:28:30;343.08;;;228.25;;
62102;SDS011;48077;48.104;11.702;2023-10-31T07:30:53;338.63;;;226.63;;
62102;SDS011;48077;48.104;11.702;2023-10-31T07:33:17;338.77;;;227.65;;
62102;SDS011;48077;48.104;11.702;2023-10-31T07:35:40;341.25;;;227.15;;
62102;SDS011;48077;48.104;11.702;2023-10-31T07:38:04;341.67;;;227.65;;
62102;SDS011;48077;48.104;11.702;2023-10-31T07:40:27;340.13;;;226.20;;
62102;SDS011;48077;48.104;11.702;2023-10-31T07:42:50;339.52;;;228.88;;
62102;SDS011;48077;48.104;11.702;2023-10-31T07:45:14;345.20;;;229.13;;
62102;SDS011;48077;48.104;11.702;2023-10-31T07:47:37;341.65;;;230.85;;
62102;SDS011;48077;48.104;11.702;2023-10-31T07:50:01;337.50;;;225.55;;
62102;SDS011;48077;48.104;11.702;2023-10-31T07:52:27;340.92;;;227.38;;
62102;SDS011;48077;48.104;11.702;2023-10-31T07:54:50;338.90;;;224.30;;
62102;SDS011;48077;48.104;11.702;2023-10-31T07:57:13;336.40;;;226.20;;
62102;SDS011;48077;48.104;11.702;2023-10-31T07:59:37;334.13;;;225.15;;
62102;SDS011;48077;48.104;11.702;2023-10-31T08:02:00;336.80;;;225.02;;
62102;SDS011;48077;48.104;11.702;2023-10-31T08:04:23;338.13;;;227.48;;
62102;SDS011;48077;48.104;11.702;2023-10-31T08:06:47;339.65;;;227.05;;
62102;SDS011;48077;48.104;11.702;2023-10-31T08:09:10;340.80;;;227.05;;
62102;SDS011;48077;48.104;11.702;2023-10-31T08:11:34;341.50;;;227.43;;
62102;SDS011;48077;48.104;11.702;2023-10-31T08:14:00;340.95;;;227.77;;
62102;SDS011;48077;48.104;11.702;2023-10-31T08:16:24;339.20;;;226.93;;
62102;SDS011;48077;48.104;11.702;2023-10-31T08:18:48;337.35;;;225.10;;
62102;SDS011;48077;48.104;11.702;2023-10-31T08:21:11;334.48;;;225.85;;
62102;SDS011;48077;48.104;11.702;2023-10-31T08:23:35;337.65;;;226.45;;
62102;SDS011;48077;48.104;11.702;2023-10-31T08:25:59;337.52;;;224.80;;
62102;SDS011;48077;48.104;11.702;2023-10-31T08:28:23;337.63;;;225.90;;
62102;SDS011;48077;48.104;11.702;2023-10-31T08:30:46;334.35;;;224.77;;
62102;SDS011;48077;48.104;11.702;2023-10-31T08:33:10;336.30;;;225.68;;
62102;SDS011;48077;48.104;11.702;2023-10-31T08:35:33;339.20;;;227.48;;
62102;SDS011;48077;48.104;11.702;2023-10-31T08:37:56;332.17;;;225.23;;
62102;SDS011;48077;48.104;11.702;2023-10-31T08:40:20;339.08;;;228.20;;
62102;SDS011;48077;48.104;11.702;2023-10-31T08:42:43;333.08;;;225.75;;
62102;SDS011;48077;48.104;11.702;2023-10-31T08:45:07;339.77;;;227.05;;
62102;SDS011;48077;48.104;11.702;2023-10-31T08:47:31;339.75;;;228.57;;
62102;SDS011;48077;48.104;11.702;2023-10-31T08:49:54;338.30;;;226.05;;
62102;SDS011;48077;48.104;11.702;2023-10-31T08:52:17;340.20;;;227.23;;
62102;SDS011;48077;48.104;11.702;2023-10-31T08:54:41;340.67;;;227.70;;
62102;SDS011;48077;48.104;11.702;2023-10-31T08:57:05;329.27;;;223.27;;
62102;SDS011;48077;48.104;11.702;2023-10-31T08:59:28;336.80;;;224.73;;
62102;SDS011;48077;48.104;11.702;2023-10-31T09:01:52;334.02;;;225.98;;
62102;SDS011;48077;48.104;11.702;2023-10-31T09:04:15;337.45;;;226.23;;
62102;SDS011;48077;48.104;11.702;2023-10-31T09:06:41;338.73;;;227.70;;
62102;SDS011;48077;48.104;11.702;2023-10-31T09:09:04;340.40;;;226.30;;
62102;SDS011;48077;48.104;11.702;2023-10-31T09:11:27;338.25;;;227.35;;
62102;SDS011;48077;48.104;11.702;2023-10-31T09:13:51;336.95;;;224.85;;
62102;SDS011;48077;48.104;11.702;2023-10-31T09:16:14;339.25;;;227.88;;
62102;SDS011;48077;48.104;11.702;2023-10-31T09:18:37;336.25;;;226.68;;
62102;SDS011;48077;48.104;11.702;2023-10-31T09:21:01;340.70;;;226.13;;
62102;SDS011;48077;48.104;11.702;2023-10-31T09:23:24;343.90;;;227.50;;
62102;SDS011;48077;48.104;11.702;2023-10-31T09:25:48;334.27;;;225.18;;
62102;SDS011;48077;48.104;11.702;2023-10-31T09:28:11;339.58;;;227.82;;
62102;SDS011;48077;48.104;11.702;2023-10-31T09:30:34;337.08;;;225.77;;
62102;SDS011;48077;48.104;11.702;2023-10-31T09:32:58;338.40;;;226.77;;
62102;SDS011;48077;48.104;11.702;2023-10-31T09:35:21;340.55;;;227.70;;
62102;SDS011;48077;48.104;11.702;2023-10-31T09:37:45;339.48;;;225.13;;
62102;SDS011;48077;48.104;11.702;2023-10-31T09:40:11;341.65;;;227.00;;
62102;SDS011;48077;48.104;11.702;2023-10-31T09:42:34;336.35;;;225.80;;
62102;SDS011;48077;48.104;11.702;2023-10-31T09:44:58;330.48;;;224.05;;
62102;SDS011;48077;48.104;11.702;2023-10-31T09:47:21;337.90;;;225.20;;
62102;SDS011;48077;48.104;11.702;2023-10-31T09:49:45;338.45;;;225.13;;
62102;SDS011;48077;48.104;11.702;2023-10-31T09:52:09;332.05;;;224.73;;
62102;SDS011;48077;48.104;11.702;2023-10-31T09:54:33;334.38;;;225.00;;
62102;SDS011;48077;48.104;11.702;2023-10-31T09:56:57;337.52;;;225.30;;
62102;SDS011;48077;48.104;11.702;2023-10-31T09:59:21;333.15;;;225.00;;
62102;SDS011;48077;48.104;11.702;2023-10-31T10:01:44;343.48;;;228.23;;
62102;SDS011;48077;48.104;11.702;2023-10-31T10:04:07;342.00;;;227.70;;
62102;SDS011;48077;48.104;11.702;2023-10-31T10:06:31;340.70;;;227.45;;
62102;SDS011;48077;48.104;11.702;2023-10-31T10:08:57;337.80;;;226.80;;
62102;SDS011;48077;48.104;11.702;2023-10-31T10:11:21;342.20;;;225.65;;
62102;SDS011;48077;48.104;11.702;2023-10-31T10:13:45;334.40;;;225.05;;
62102;SDS011;48077;48.104;11.702;2023-10-31T10:16:09;338.27;;;225.85;;
62102;SDS011;48077;48.104;11.702;2023-10-31T10:18:35;338.25;;;226.02;;
62102;SDS011;48077;48.104;11.702;2023-10-31T10:21:03;337.52;;;225.02;;
62102;SDS011;48077;48.104;11.702;2023-10-31T10:23:28;333.23;;;224.40;;
62102;SDS011;48077;48.104;11.702;2023-10-31T10:25:53;332.77;;;224.07;;
62102;SDS011;48077;48.104;11.702;2023-10-31T10:28:17;332.80;;;221.98;;
62102;SDS011;48077;48.104;11.702;2023-10-31T10:30:42;335.05;;;223.95;;
62102;SDS011;48077;48.104;11.702;2023-10-31T10:33:07;338.48;;;224.02;;
62102;SDS011;48077;48.104;11.702;2023-10-31T10:35:31;330.98;;;220.35;;
62102;SDS011;48077;48.104;11.702;2023-10-31T10:37:54;335.85;;;224.35;;
62102;SDS011;48077;48.104;11.702;2023-10-31T10:40:19;333.67;;;224.48;;
62102;SDS011;48077;48.104;11.702;2023-10-31T10:42:45;338.75;;;224.95;;
62102;SDS011;48077;48.104;11.702;2023-10-31T10:45:11;331.48;;;221.80;;
62102;SDS011;48077;48.104;11.702;2023-10-31T10:47:37;336.02;;;223.50;;
62102;SDS011;48077;48.104;11.702;2023-10-31T10:50:02;331.63;;;222.48;;
62102;SDS011;48077;48.104;11.702;2023-10-31T10:52:30;337.13;;;223.70;;
62102;SDS011;48077;48.104;11.702;2023-10-31T10:55:03;334.73;;;224.45;;
62102;SDS011;48077;48.104;11.702;2023-10-31T10:57:32;340.92;;;224.63;;
62102;SDS011;48077;48.104;11.702;2023-10-31T11:00:04;337.63;;;224.30;;
62102;SDS011;48077;48.104;11.702;2023-10-31T11:02:32;333.15;;;223.55;;
62102;SDS011;48077;48.104;11.702;2023-10-31T11:04:55;333.63;;;222.15;;
62102;SDS011;48077;48.104;11.702;2023-10-31T11:07:19;332.63;;;222.77;;
62102;SDS011;48077;48.104;11.702;2023-10-31T11:09:45;332.35;;;221.70;;
62102;SDS011;48077;48.104;11.702;2023-10-31T11:12:10;335.13;;;223.05;;
62102;SDS011;48077;48.104;11.702;2023-10-31T11:14:35;331.00;;;221.57;;
62102;SDS011;48077;48.104;11.702;2023-10-31T11:17:01;334.42;;;221.70;;
62102;SDS011;48077;48.104;11.702;2023-10-31T11:24:34;338.42;;;225.13;;
62102;SDS011;48077;48.104;11.702;2023-10-31T11:27:01;333.42;;;223.07;;
62102;SDS011;48077;48.104;11.702;2023-10-31T11:29:27;331.90;;;221.70;;
62102;SDS011;48077;48.104;11.702;2023-10-31T11:31:50;325.50;;;219.65;;
62102;SDS011;48077;48.104;11.702;2023-10-31T11:34:15;325.77;;;219.70;;
62102;SDS011;48077;48.104;11.702;2023-10-31T11:36:41;332.92;;;221.18;;
62102;SDS011;48077;48.104;11.702;2023-10-31T11:39:11;333.25;;;220.88;;
62102;SDS011;48077;48.104;11.702;2023-10-31T11:41:37;331.08;;;222.15;;
62102;SDS011;48077;48.104;11.702;2023-10-31T11:44:00;326.95;;;218.15;;
62102;SDS011;48077;48.104;11.702;2023-10-31T11:46:25;327.08;;;219.50;;
62102;SDS011;48077;48.104;11.702;2023-10-31T11:48:50;327.67;;;219.40;;
62102;SDS011;48077;48.104;11.702;2023-10-31T11:51:14;327.70;;;219.50;;
62102;SDS011;48077;48.104;11.702;2023-10-31T11:53:38;327.85;;;219.43;;
62102;SDS011;48077;48.104;11.702;2023-10-31T11:56:02;325.45;;;218.30;;
62102;SDS011;48077;48.104;11.702;2023-10-31T11:58:26;323.75;;;217.48;;
62102;SDS011;48077;48.104;11.702;2023-10-31T12:00:50;321.13;;;215.93;;
62102;SDS011;48077;48.104;11.702;2023-10-31T12:03:15;324.05;;;217.82;;
62102;SDS011;48077;48.104;11.702;2023-10-31T12:05:40;326.77;;;216.80;;
62102;SDS011;48077;48.104;11.702;2023-10-31T12:08:14;324.38;;;216.90;;
62102;SDS011;48077;48.104;11.702;2023-10-31T12:10:37;323.83;;;217.45;;
62102;SDS011;48077;48.104;11.702;2023-10-31T12:13:01;325.25;;;217.98;;
62102;SDS011;48077;48.104;11.702;2023-10-31T12:15:25;323.67;;;217.68;;
62102;SDS011;48077;48.104;11.702;2023-10-31T12:17:48;326.45;;;218.27;;
62102;SDS011;48077;48.104;11.702;2023-10-31T12:20:12;325.63;;;218.40;;
62102;SDS011;48077;48.104;11.702;2023-10-31T12:22:36;327.13;;;217.68;;
62102;SDS011;48077;48.104;11.702;2023-10-31T12:25:00;328.10;;;219.77;;
62102;SDS011;48077;48.104;11.702;2023-10-31T12:27:41;339.75;;;224.70;;
62102;SDS011;48077;48.104;11.702;2023-10-31T12:30:11;340.88;;;228.27;;
62102;SDS011;48077;48.104;11.702;2023-10-31T12:32:35;328.13;;;219.82;;
62102;SDS011;48077;48.104;11.702;2023-10-31T12:34:59;322.27;;;216.68;;
62102;SDS011;48077;48.104;11.702;2023-10-31T12:37:22;322.30;;;215.65;;
62102;SDS011;48077;48.104;11.702;2023-10-31T12:39:46;334.55;;;220.18;;
62102;SDS011;48077;48.104;11.702;2023-10-31T12:42:12;328.27;;;219.40;;
62102;SDS011;48077;48.104;11.702;2023-10-31T12:44:36;321.38;;;215.07;;
62102;SDS011;48077;48.104;11.702;2023-10-31T12:46:59;317.73;;;213.82;;
62102;SDS011;48077;48.104;11.702;2023-10-31T12:49:23;318.83;;;214.68;;
62102;SDS011;48077;48.104;11.702;2023-10-31T12:52:02;323.42;;;217.13;;
62102;SDS011;48077;48.104;11.702;2023-10-31T12:54:33;324.95;;;217.25;;
62102;SDS011;48077;48.104;11.702;2023-10-31T12:57:07;316.73;;;213.35;;
62102;SDS011;48077;48.104;11.702;2023-10-31T12:59:31;320.15;;;215.70;;
62102;SDS011;48077;48.104;11.702;2023-10-31T13:01:55;317.17;;;213.57;;
62102;SDS011;48077;48.104;11.702;2023-10-31T13:04:28;322.48;;;215.43;;
62102;SDS011;48077;48.104;11.702;2023-10-31T13:09:32;324.52;;;219.15;;
62102;SDS011;48077;48.104;11.702;2023-10-31T13:11:59;328.35;;;218.05;;
62102;SDS011;48077;48.104;11.702;2023-10-31T13:14:24;321.90;;;216.07;;
62102;SDS011;48077;48.104;11.702;2023-10-31T13:16:48;321.98;;;215.63;;
62102;SDS011;48077;48.104;11.702;2023-10-31T13:19:11;324.50;;;216.75;;
62102;SDS011;48077;48.104;11.702;2023-10-31T13:21:34;322.95;;;216.65;;
62102;SDS011;48077;48.104;11.702;2023-10-31T13:23:58;321.17;;;215.20;;
62102;SDS011;48077;48.104;11.702;2023-10-31T13:26:21;324.80;;;216.38;;
62102;SDS011;48077;48.104;11.702;2023-10-31T13:28:45;324.55;;;218.20;;
62102;SDS011;48077;48.104;11.702;2023-10-31T13:31:08;327.58;;;219.32;;
62102;SDS011;48077;48.104;11.702;2023-10-31T13:33:34;328.23;;;220.85;;
62102;SDS011;48077;48.104;11.702;2023-10-31T13:35:58;325.02;;;220.43;;
62102;SDS011;48077;48.104;11.702;2023-10-31T13:38:21;326.33;;;220.30;;